Lenoir, NC

8:00 PM EDT on August 04, 2015 (GMT -0400)
Highland Ave | | Change Station
CLOSE
Current Station
Personal Weather Station
Location: Lenoir, NC
Elevation: 1128 ft
Nearby Weather Stations

Elev 1128 ft 35.91 °N, 81.53 °W | Updated 29 seconds ago

Partly Cloudy
Partly Cloudy
86.2 °F
Feels Like 90 °F
N
0.0
Wind Variable Wind from South
Gusts 0.0 mph

Today
High -- | Low -- °F
--% Chance of Precip.
Yesterday
High -- | Low -- °F
Precip. -- in
6:35 AM 8:28 PM
Waning Gibbous, 73% visible
Pressure 30.04 in
Visibility 10.0 miles
Clouds Clear
Heat Index 90 °F
Dew Point 69 °F
Humidity 57%
Rainfall 0.00 in
Snow Depth Not available.
UV 0 out of 12
Pollen 5.90 out of 12
Air Quality Not available.
Flu Activity Not available.
METAR KMRN 042355Z AUTO 31003KT 10SM CLR 30/18 A3004 RMK AO2 T03030180 10345 20265

More Conditions Fewer Conditions

Pressure 30.04 in
Visibility 10.0 miles
Clouds Clear
Heat Index 90 °F
Dew Point 69 °F
Humidity 57%
Rainfall 0.00 in
Snow Depth Not available.
UV 0 out of 12
Pollen 5.90 out of 12
Air Quality Not available.
Flu Activity Not available.
METAR KMRN 042355Z AUTO 31003KT 10SM CLR 30/18 A3004 RMK AO2 T03030180 10345 20265

More Conditions Fewer Conditions

10-Day Weather Forecast

×

Almanac

Astronomy

Aug. 04, 2015 Rise Set
Actual Time
Civil Twilight
Nautical Twilight
Astronomical Twilight
Moon
Length of Visible Light
Length of Day
Tomorrow will be .
, % of the Moon is Illuminated

Today's Extremes

State Highs State Lows

Community

WunderPhotos

Upload Photos

1,844,024 photos uploaded!

WunderBlogs® & News

Nearby

Air Quality

  Air Quality AQ Index Pollutant
Not available.

Snow Depth

Station Depth Elevation

Earthquake Activity

City Distance Mag. Time & Date
Minimum magnitude displayed is 2.5.

Coastal Water Temperatures

Place Temperature

Stations

Nearby Weather Stations

Station Location Temp. Windchill Dew Point Humidity Wind Precip. Elev Updated Type